Time;durP1;ratioP1;P1;durP2;ratioP2;P2;SDS_P1;SDS_P2;PMS_P1;PMS_P2;Temp;Humidity;BMP_temperature;BMP_pressure;BME280_temperature;BME280_humidity;BME280_pressure;Samples;Min_cycle;Max_cycle;Signal;HPM_P1;HPM_P2
2023/12/10 00:00:07;;;;;;;9.85;6.53;;;;;;;;;;4976740;28;20035;-75
2023/12/10 00:02:32;;;;;;;9.45;5.95;;;;;;;;;;4980428;28;20054;-74
2023/12/10 00:04:57;;;;;;;8.98;5.63;;;;;;;;;;4979786;28;20168;-75
2023/12/10 00:07:22;;;;;;;10.18;5.57;;;;;;;;;;4999050;28;20494;-75
2023/12/10 00:09:48;;;;;;;9.43;5.55;;;;;;;;;;4980111;28;20171;-76
2023/12/10 00:12:13;;;;;;;9.45;5.57;;;;;;;;;;4981354;28;20059;-76
2023/12/10 00:14:38;;;;;;;9.15;5.72;;;;;;;;;;4979083;28;20501;-76
2023/12/10 00:17:03;;;;;;;9.20;5.70;;;;;;;;;;4978321;28;20039;-75
2023/12/10 00:19:29;;;;;;;10.25;6.93;;;;;;;;;;4979083;28;20394;-75
2023/12/10 00:21:54;;;;;;;9.68;5.80;;;;;;;;;;4996050;28;20032;-76
2023/12/10 00:24:21;;;;;;;10.68;6.40;;;;;;;;;;4977695;28;20035;-76
2023/12/10 00:26:47;;;;;;;11.80;6.40;;;;;;;;;;4976582;28;20414;-75
2023/12/10 00:29:12;;;;;;;10.55;6.25;;;;;;;;;;4978128;28;20039;-76
2023/12/10 00:31:37;;;;;;;8.40;5.30;;;;;;;;;;4980397;28;20027;-75
2023/12/10 00:34:03;;;;;;;10.27;6.47;;;;;;;;;;4975739;28;20066;-75
2023/12/10 00:36:28;;;;;;;9.43;5.78;;;;;;;;;;4978137;28;20026;-75
2023/12/10 00:38:55;;;;;;;9.73;5.70;;;;;;;;;;4978595;28;20035;-75
2023/12/10 00:41:21;;;;;;;11.52;7.03;;;;;;;;;;4982661;28;20069;-76
2023/12/10 00:43:46;;;;;;;11.90;6.35;;;;;;;;;;4978264;28;20030;-75
2023/12/10 00:46:11;;;;;;;9.70;6.50;;;;;;;;;;4980148;28;20027;-75
2023/12/10 00:48:37;;;;;;;8.57;5.88;;;;;;;;;;4974561;28;20046;-74
2023/12/10 00:51:02;;;;;;;10.02;5.82;;;;;;;;;;4974041;28;20042;-75
2023/12/10 00:53:28;;;;;;;9.02;5.70;;;;;;;;;;4976573;28;20038;-75
2023/12/10 00:55:53;;;;;;;9.52;5.70;;;;;;;;;;4976087;28;20058;-75
2023/12/10 00:58:18;;;;;;;8.48;5.15;;;;;;;;;;4979242;28;20038;-75
2023/12/10 01:00:43;;;;;;;9.35;5.47;;;;;;;;;;4979449;28;20037;-75
2023/12/10 01:03:09;;;;;;;8.70;5.00;;;;;;;;;;4972065;28;20031;-75
2023/12/10 01:05:34;;;;;;;8.55;5.38;;;;;;;;;;4974891;28;20110;-76
2023/12/10 01:07:59;;;;;;;8.48;5.15;;;;;;;;;;4992494;28;20055;-75
2023/12/10 01:10:25;;;;;;;9.15;5.20;;;;;;;;;;4977850;28;20509;-75
2023/12/10 01:12:50;;;;;;;7.72;4.75;;;;;;;;;;4986579;28;20071;-75
2023/12/10 01:15:16;;;;;;;6.90;4.65;;;;;;;;;;4981207;28;20058;-75
2023/12/10 01:17:41;;;;;;;6.28;4.10;;;;;;;;;;5004743;28;20489;-75
2023/12/10 01:20:07;;;;;;;8.10;4.05;;;;;;;;;;4974732;28;20042;-76
2023/12/10 01:22:32;;;;;;;10.25;3.60;;;;;;;;;;4976864;28;20038;-75
2023/12/10 01:24:57;;;;;;;7.03;4.07;;;;;;;;;;4983906;28;20114;-74
2023/12/10 01:27:23;;;;;;;7.97;3.63;;;;;;;;;;4984307;28;20050;-75
2023/12/10 01:29:48;;;;;;;5.80;3.70;;;;;;;;;;4972150;28;20030;-75
2023/12/10 01:32:13;;;;;;;6.10;3.53;;;;;;;;;;4972154;28;20066;-74
2023/12/10 01:34:41;;;;;;;5.60;3.00;;;;;;;;;;4975494;28;20483;-75
2023/12/10 01:37:06;;;;;;;4.97;2.75;;;;;;;;;;4976259;28;20130;-75
2023/12/10 01:39:31;;;;;;;5.82;2.92;;;;;;;;;;4990051;28;20097;-75
2023/12/10 01:41:56;;;;;;;5.68;2.97;;;;;;;;;;4981949;28;20045;-75
2023/12/10 01:44:22;;;;;;;5.25;3.28;;;;;;;;;;4971186;28;20035;-74
2023/12/10 01:46:47;;;;;;;4.45;2.63;;;;;;;;;;4989196;28;20034;-76
2023/12/10 01:49:13;;;;;;;6.30;2.65;;;;;;;;;;4973948;28;20035;-75
2023/12/10 01:51:38;;;;;;;4.68;2.60;;;;;;;;;;4975260;28;20068;-76
2023/12/10 01:54:03;;;;;;;4.60;2.53;;;;;;;;;;4983195;28;20415;-75
2023/12/10 01:56:29;;;;;;;4.63;2.70;;;;;;;;;;4978822;28;20022;-75
2023/12/10 01:58:55;;;;;;;4.80;2.28;;;;;;;;;;4971562;28;20030;-75
2023/12/10 02:01:20;;;;;;;5.45;2.25;;;;;;;;;;4972851;28;20038;-75
2023/12/10 02:03:45;;;;;;;4.32;2.03;;;;;;;;;;4975514;28;20105;-75
2023/12/10 02:06:11;;;;;;;4.65;2.00;;;;;;;;;;4975880;28;20134;-75
2023/12/10 02:08:36;;;;;;;4.32;2.00;;;;;;;;;;4979498;28;20109;-75
2023/12/10 02:11:01;;;;;;;5.28;2.00;;;;;;;;;;5004891;28;20115;-76
2023/12/10 02:13:26;;;;;;;3.67;1.77;;;;;;;;;;4997698;28;20030;-75
2023/12/10 02:15:52;;;;;;;3.78;1.92;;;;;;;;;;4987291;28;20042;-75
2023/12/10 02:18:19;;;;;;;3.13;1.52;;;;;;;;;;4977867;28;20124;-76
2023/12/10 02:20:45;;;;;;;3.55;1.65;;;;;;;;;;5004521;28;20036;-76
2023/12/10 02:23:29;;;;;;;3.42;1.80;;;;;;;;;;4992321;28;20034;-74
2023/12/10 02:25:55;;;;;;;3.60;1.80;;;;;;;;;;4998465;28;20027;-76
2023/12/10 02:28:22;;;;;;;3.97;2.00;;;;;;;;;;4993989;28;20031;-75
2023/12/10 02:30:47;;;;;;;3.03;1.55;;;;;;;;;;5003301;28;20118;-75
2023/12/10 02:33:12;;;;;;;5.57;2.47;;;;;;;;;;5003423;28;20553;-75
2023/12/10 02:35:38;;;;;;;3.75;1.90;;;;;;;;;;4999659;28;20027;-76
2023/12/10 02:38:04;;;;;;;3.60;1.80;;;;;;;;;;4980469;28;20422;-75
2023/12/10 02:40:29;;;;;;;3.30;1.60;;;;;;;;;;4978758;28;20038;-76
2023/12/10 02:42:54;;;;;;;2.83;1.48;;;;;;;;;;5017825;28;20173;-75
2023/12/10 02:45:20;;;;;;;3.40;1.70;;;;;;;;;;4994390;28;20057;-76
2023/12/10 02:47:45;;;;;;;3.55;1.88;;;;;;;;;;4995582;28;20034;-75
2023/12/10 02:50:10;;;;;;;2.88;1.50;;;;;;;;;;4989306;28;20042;-76
2023/12/10 02:52:38;;;;;;;3.40;1.40;;;;;;;;;;4986694;28;20043;-75
2023/12/10 02:55:04;;;;;;;3.22;1.73;;;;;;;;;;4996667;28;20038;-75
2023/12/10 02:57:29;;;;;;;3.75;1.80;;;;;;;;;;4980016;28;20031;-75
2023/12/10 02:59:54;;;;;;;3.40;1.77;;;;;;;;;;4980391;28;20494;-75
2023/12/10 03:02:19;;;;;;;4.05;1.65;;;;;;;;;;4994316;28;20126;-76
2023/12/10 03:04:44;;;;;;;3.05;1.83;;;;;;;;;;4986699;28;20422;-75
2023/12/10 03:07:10;;;;;;;3.10;1.60;;;;;;;;;;5004364;28;20035;-76
2023/12/10 03:09:35;;;;;;;2.80;1.35;;;;;;;;;;5000385;28;20387;-75
2023/12/10 03:12:00;;;;;;;4.55;2.00;;;;;;;;;;5011993;28;20149;-76
2023/12/10 03:14:25;;;;;;;3.65;1.70;;;;;;;;;;4983975;28;20038;-76
2023/12/10 03:16:50;;;;;;;3.22;1.73;;;;;;;;;;5000136;28;20113;-75
2023/12/10 03:19:15;;;;;;;3.42;1.65;;;;;;;;;;4992384;28;20035;-76
2023/12/10 03:21:41;;;;;;;3.63;1.40;;;;;;;;;;5011516;28;20045;-75
2023/12/10 03:24:06;;;;;;;3.55;1.80;;;;;;;;;;4993244;28;20054;-76
2023/12/10 03:26:31;;;;;;;3.78;1.83;;;;;;;;;;4980948;28;20143;-76
2023/12/10 03:28:56;;;;;;;4.30;1.50;;;;;;;;;;4980157;28;20034;-75
2023/12/10 03:31:21;;;;;;;3.22;1.45;;;;;;;;;;4992850;28;20048;-75
2023/12/10 03:33:47;;;;;;;2.97;1.23;;;;;;;;;;4984580;28;20030;-76
2023/12/10 03:36:13;;;;;;;3.10;1.48;;;;;;;;;;4976575;28;20636;-75
2023/12/10 03:38:38;;;;;;;2.95;1.40;;;;;;;;;;4979289;28;20123;-75
2023/12/10 03:41:04;;;;;;;3.05;1.42;;;;;;;;;;4980227;28;20070;-75
2023/12/10 03:43:29;;;;;;;2.42;1.30;;;;;;;;;;4993393;28;20034;-74
2023/12/10 03:45:54;;;;;;;2.88;1.33;;;;;;;;;;4982443;28;20042;-75
2023/12/10 03:48:19;;;;;;;2.65;1.20;;;;;;;;;;4979147;28;20031;-75
2023/12/10 03:50:45;;;;;;;3.10;1.30;;;;;;;;;;4977591;28;20042;-75
2023/12/10 03:53:10;;;;;;;2.55;1.10;;;;;;;;;;4978117;28;20053;-76
2023/12/10 03:55:35;;;;;;;2.97;1.33;;;;;;;;;;4981771;28;20106;-76
2023/12/10 03:58:01;;;;;;;2.40;1.08;;;;;;;;;;4980713;28;20487;-76
2023/12/10 04:00:26;;;;;;;2.88;1.30;;;;;;;;;;4981619;28;20027;-76
2023/12/10 04:02:51;;;;;;;2.38;1.20;;;;;;;;;;4973404;28;20506;-75
2023/12/10 04:05:17;;;;;;;2.38;1.15;;;;;;;;;;4973903;28;20035;-76
2023/12/10 04:07:42;;;;;;;3.45;1.58;;;;;;;;;;4976608;28;20035;-75
2023/12/10 04:10:08;;;;;;;3.20;1.48;;;;;;;;;;4976572;28;20034;-76
2023/12/10 04:12:33;;;;;;;4.75;1.40;;;;;;;;;;4980626;28;20686;-74
2023/12/10 04:14:58;;;;;;;3.22;1.45;;;;;;;;;;4979595;28;20105;-76
2023/12/10 04:17:23;;;;;;;3.55;0.98;;;;;;;;;;4983241;28;20026;-75
2023/12/10 04:19:49;;;;;;;1.90;0.93;;;;;;;;;;4983177;28;20055;-75
2023/12/10 04:22:14;;;;;;;2.33;0.95;;;;;;;;;;4977448;28;20406;-75
2023/12/10 04:24:39;;;;;;;2.42;1.10;;;;;;;;;;4979129;28;20026;-76
2023/12/10 04:27:04;;;;;;;3.22;1.20;;;;;;;;;;4978212;28;20035;-75
2023/12/10 04:29:29;;;;;;;3.50;1.60;;;;;;;;;;4979384;28;20027;-75
2023/12/10 04:31:55;;;;;;;3.55;1.48;;;;;;;;;;4972923;28;20126;-76
2023/12/10 04:34:20;;;;;;;3.67;1.48;;;;;;;;;;4974016;28;20038;-75
2023/12/10 04:36:45;;;;;;;3.45;1.55;;;;;;;;;;4976914;28;20042;-75
2023/12/10 04:39:10;;;;;;;3.40;1.58;;;;;;;;;;4976961;28;20037;-75
2023/12/10 04:41:35;;;;;;;3.10;1.35;;;;;;;;;;4981092;28;20038;-75
2023/12/10 04:44:01;;;;;;;2.75;1.00;;;;;;;;;;4975522;28;20035;-75
2023/12/10 04:46:27;;;;;;;4.80;1.15;;;;;;;;;;4972987;28;20038;-75
2023/12/10 04:48:52;;;;;;;2.65;1.17;;;;;;;;;;4975205;28;20038;-74
2023/12/10 04:51:17;;;;;;;2.28;0.90;;;;;;;;;;4976179;28;20023;-75
2023/12/10 04:53:42;;;;;;;3.20;0.75;;;;;;;;;;4979053;28;20034;-75
2023/12/10 04:58:41;;;;;;;2.17;0.82;;;;;;;;;;4935546;28;20117;-81
2023/12/10 05:01:07;;;;;;;2.72;0.90;;;;;;;;;;4935982;29;20035;-81
2023/12/10 05:03:32;;;;;;;2.75;0.80;;;;;;;;;;4932231;28;20097;-80
2023/12/10 05:05:57;;;;;;;3.63;0.80;;;;;;;;;;4932141;29;20124;-82
2023/12/10 05:08:22;;;;;;;4.95;1.00;;;;;;;;;;4933789;29;20032;-80
2023/12/10 05:10:48;;;;;;;4.18;1.40;;;;;;;;;;4928737;28;20029;-81
2023/12/10 05:13:13;;;;;;;4.28;1.00;;;;;;;;;;4934595;29;20075;-81
2023/12/10 05:15:38;;;;;;;6.60;1.35;;;;;;;;;;4932476;29;20404;-81
2023/12/10 05:18:03;;;;;;;3.60;0.90;;;;;;;;;;4934086;29;20039;-81
2023/12/10 05:20:29;;;;;;;2.63;0.80;;;;;;;;;;4929327;29;20035;-80
2023/12/10 05:22:54;;;;;;;3.97;1.20;;;;;;;;;;4931638;29;20043;-82
2023/12/10 05:25:19;;;;;;;2.78;0.80;;;;;;;;;;4933530;29;20039;-82
2023/12/10 05:27:44;;;;;;;2.95;0.95;;;;;;;;;;4933982;29;20113;-82
2023/12/10 05:30:11;;;;;;;3.40;0.80;;;;;;;;;;4936174;29;20066;-82
2023/12/10 05:32:36;;;;;;;3.20;1.00;;;;;;;;;;4932539;29;20040;-82
2023/12/10 05:35:02;;;;;;;4.30;0.80;;;;;;;;;;4934489;28;20032;-82
2023/12/10 05:37:27;;;;;;;4.40;0.98;;;;;;;;;;4945767;29;20028;-82
2023/12/10 05:39:52;;;;;;;4.97;1.00;;;;;;;;;;4934897;28;20549;-82
2023/12/10 05:42:17;;;;;;;5.55;1.20;;;;;;;;;;4937479;29;20047;-81
2023/12/10 05:44:42;;;;;;;12.18;1.33;;;;;;;;;;4935805;28;20458;-81
2023/12/10 05:47:08;;;;;;;5.70;1.10;;;;;;;;;;4936114;29;20500;-81
2023/12/10 05:49:33;;;;;;;2.50;0.77;;;;;;;;;;4929215;29;20036;-81
2023/12/10 05:51:58;;;;;;;4.75;1.00;;;;;;;;;;4929523;29;20075;-82
2023/12/10 05:54:23;;;;;;;4.15;0.90;;;;;;;;;;4933079;29;20036;-82
2023/12/10 05:56:49;;;;;;;8.35;0.98;;;;;;;;;;4936493;29;20028;-82
2023/12/10 05:59:15;;;;;;;10.10;1.10;;;;;;;;;;4936513;29;20130;-81
2023/12/10 06:01:41;;;;;;;4.78;1.25;;;;;;;;;;4910547;28;20024;-81
2023/12/10 06:04:06;;;;;;;4.75;0.90;;;;;;;;;;4931317;29;20614;-82
2023/12/10 06:06:31;;;;;;;6.50;1.27;;;;;;;;;;4927418;29;20035;-82
2023/12/10 06:08:56;;;;;;;7.28;1.10;;;;;;;;;;4935117;29;20055;-82
2023/12/10 06:11:22;;;;;;;3.60;1.30;;;;;;;;;;4935080;28;20039;-82
2023/12/10 06:13:47;;;;;;;9.63;1.80;;;;;;;;;;4930903;29;20033;-80
2023/12/10 06:16:12;;;;;;;3.40;1.05;;;;;;;;;;4930323;29;20443;-80
2023/12/10 06:18:37;;;;;;;5.53;0.85;;;;;;;;;;4927806;29;20040;-80
2023/12/10 06:21:02;;;;;;;4.10;0.90;;;;;;;;;;4946158;29;20028;-82
2023/12/10 06:23:28;;;;;;;5.97;1.98;;;;;;;;;;4933440;29;20399;-82
2023/12/10 06:25:53;;;;;;;7.50;1.73;;;;;;;;;;4929463;29;20082;-82
2023/12/10 06:28:18;;;;;;;9.25;1.40;;;;;;;;;;4930313;29;20089;-82
2023/12/10 06:30:43;;;;;;;6.22;1.38;;;;;;;;;;4925150;29;20036;-81
2023/12/10 06:33:08;;;;;;;5.63;1.20;;;;;;;;;;4925864;29;20075;-82
2023/12/10 06:35:33;;;;;;;7.32;1.65;;;;;;;;;;4929265;29;20035;-82
2023/12/10 06:37:59;;;;;;;9.75;1.40;;;;;;;;;;4934101;29;20089;-82
2023/12/10 06:40:24;;;;;;;9.88;2.08;;;;;;;;;;4916737;28;20028;-83
2023/12/10 06:42:49;;;;;;;8.60;2.03;;;;;;;;;;4942087;29;20166;-81
2023/12/10 06:45:14;;;;;;;7.50;1.65;;;;;;;;;;4925635;29;20112;-82
2023/12/10 06:47:40;;;;;;;7.03;1.13;;;;;;;;;;4924701;28;20039;-81
2023/12/10 06:50:06;;;;;;;8.60;1.40;;;;;;;;;;4931667;29;20513;-83
2023/12/10 06:52:31;;;;;;;6.15;1.42;;;;;;;;;;4924329;28;20099;-83
2023/12/10 06:54:56;;;;;;;7.45;1.38;;;;;;;;;;4927876;29;20034;-82
2023/12/10 06:57:21;;;;;;;9.70;2.15;;;;;;;;;;4926420;29;20028;-83
2023/12/10 06:59:46;;;;;;;6.82;1.50;;;;;;;;;;4922447;28;20036;-83
2023/12/10 07:02:12;;;;;;;8.95;1.20;;;;;;;;;;4925000;29;20042;-82
2023/12/10 07:04:37;;;;;;;7.13;1.67;;;;;;;;;;4932620;28;20051;-82
2023/12/10 07:07:02;;;;;;;8.40;1.42;;;;;;;;;;4934550;28;20063;-83
2023/12/10 07:09:27;;;;;;;8.10;2.00;;;;;;;;;;4929790;29;20036;-83
2023/12/10 07:11:52;;;;;;;7.22;1.42;;;;;;;;;;4926651;28;20063;-82
2023/12/10 07:14:18;;;;;;;5.28;1.40;;;;;;;;;;4938473;29;20396;-83
2023/12/10 07:16:43;;;;;;;8.63;1.52;;;;;;;;;;4945950;29;20082;-83
2023/12/10 07:19:08;;;;;;;7.20;1.40;;;;;;;;;;4929668;28;20020;-82
2023/12/10 07:21:33;;;;;;;9.73;1.60;;;;;;;;;;4927189;29;20030;-83
2023/12/10 07:23:58;;;;;;;11.75;2.03;;;;;;;;;;4927088;29;20105;-82
2023/12/10 07:26:24;;;;;;;10.32;2.17;;;;;;;;;;4923363;29;20095;-83
2023/12/10 07:28:51;;;;;;;10.15;1.52;;;;;;;;;;4929603;28;20035;-82
2023/12/10 07:31:16;;;;;;;8.50;1.58;;;;;;;;;;4929525;29;20037;-82
2023/12/10 07:33:41;;;;;;;10.05;1.83;;;;;;;;;;4928882;29;20034;-82
2023/12/10 07:36:07;;;;;;;7.35;1.80;;;;;;;;;;4930358;28;20032;-83
2023/12/10 07:38:32;;;;;;;9.05;1.45;;;;;;;;;;4933432;28;20036;-82
2023/12/10 07:40:57;;;;;;;8.10;1.45;;;;;;;;;;4928705;28;20036;-84
2023/12/10 07:43:22;;;;;;;8.32;1.45;;;;;;;;;;4927455;28;20039;-82
2023/12/10 07:45:48;;;;;;;11.85;2.35;;;;;;;;;;4931881;29;20032;-83
2023/12/10 07:48:13;;;;;;;9.77;1.83;;;;;;;;;;4933564;29;20035;-82
2023/12/10 07:50:38;;;;;;;11.77;1.88;;;;;;;;;;4929140;29;20403;-82
2023/12/10 07:53:03;;;;;;;10.60;2.35;;;;;;;;;;4930430;28;20039;-83
2023/12/10 07:55:28;;;;;;;11.35;1.90;;;;;;;;;;4931719;29;20081;-83
2023/12/10 07:57:54;;;;;;;6.47;1.35;;;;;;;;;;4944992;29;20032;-83
2023/12/10 08:00:20;;;;;;;6.45;1.80;;;;;;;;;;4933795;29;20118;-83
2023/12/10 08:02:45;;;;;;;14.07;1.77;;;;;;;;;;4929037;29;20039;-82
2023/12/10 08:05:10;;;;;;;8.30;2.10;;;;;;;;;;4930968;29;20036;-82
2023/12/10 08:07:35;;;;;;;14.98;2.40;;;;;;;;;;4928531;29;20062;-82
2023/12/10 08:10:00;;;;;;;9.45;1.67;;;;;;;;;;4928329;28;20035;-83
2023/12/10 08:12:25;;;;;;;11.77;2.53;;;;;;;;;;4930500;29;20043;-83
2023/12/10 08:14:51;;;;;;;10.15;2.03;;;;;;;;;;4932503;29;20075;-82
2023/12/10 08:17:16;;;;;;;8.90;2.20;;;;;;;;;;4929416;28;20495;-84
2023/12/10 08:19:41;;;;;;;11.05;2.95;;;;;;;;;;4932352;29;20773;-83
2023/12/10 08:22:07;;;;;;;10.25;2.53;;;;;;;;;;4928202;29;20082;-84
2023/12/10 08:24:32;;;;;;;12.65;2.83;;;;;;;;;;4924671;29;20043;-83
2023/12/10 08:26:58;;;;;;;11.77;2.38;;;;;;;;;;4928817;28;20067;-83
2023/12/10 08:29:23;;;;;;;14.60;3.63;;;;;;;;;;4930574;29;20074;-83
2023/12/10 08:31:48;;;;;;;11.07;2.75;;;;;;;;;;4929148;29;20036;-84
2023/12/10 08:34:13;;;;;;;12.38;2.15;;;;;;;;;;4929467;29;20058;-83
2023/12/10 08:36:38;;;;;;;13.63;2.13;;;;;;;;;;4942826;28;20028;-83
2023/12/10 08:39:03;;;;;;;18.90;3.28;;;;;;;;;;4926937;29;20035;-83
2023/12/10 08:41:30;;;;;;;12.48;2.53;;;;;;;;;;4933368;29;20054;-84
2023/12/10 08:43:55;;;;;;;12.25;2.42;;;;;;;;;;4931394;29;20038;-82
2023/12/10 08:46:20;;;;;;;9.77;2.33;;;;;;;;;;4929617;29;20036;-83
2023/12/10 08:48:46;;;;;;;12.40;2.70;;;;;;;;;;4926596;29;20044;-83
2023/12/10 08:51:11;;;;;;;21.02;3.75;;;;;;;;;;4928252;29;20035;-83
2023/12/10 08:53:36;;;;;;;10.38;2.50;;;;;;;;;;4929390;29;20468;-80
2023/12/10 08:56:01;;;;;;;11.90;1.92;;;;;;;;;;4931722;29;20031;-80
2023/12/10 08:58:29;;;;;;;10.68;2.42;;;;;;;;;;4930384;28;20538;-79
2023/12/10 09:00:54;;;;;;;10.57;2.83;;;;;;;;;;4930368;29;20036;-80
2023/12/10 09:03:20;;;;;;;15.25;3.45;;;;;;;;;;4928489;29;20039;-80
2023/12/10 09:05:45;;;;;;;13.18;3.05;;;;;;;;;;4930469;29;20119;-80
2023/12/10 09:08:10;;;;;;;14.75;3.40;;;;;;;;;;4929950;28;20046;-80
2023/12/10 09:10:36;;;;;;;12.32;2.83;;;;;;;;;;4928458;29;20090;-81
2023/12/10 09:13:01;;;;;;;14.57;3.03;;;;;;;;;;4945175;29;20447;-81
2023/12/10 09:15:26;;;;;;;13.18;2.20;;;;;;;;;;4929250;29;20031;-80
2023/12/10 09:17:51;;;;;;;15.35;2.58;;;;;;;;;;4927526;29;20039;-80
2023/12/10 09:20:16;;;;;;;13.50;2.25;;;;;;;;;;4924282;28;20452;-82
2023/12/10 09:22:41;;;;;;;13.63;2.67;;;;;;;;;;4928331;28;20455;-81
2023/12/10 09:25:07;;;;;;;10.88;2.70;;;;;;;;;;4931917;29;20046;-82
2023/12/10 09:27:32;;;;;;;19.40;4.80;;;;;;;;;;4943401;28;20032;-82
2023/12/10 09:29:58;;;;;;;13.18;3.10;;;;;;;;;;4927589;29;20117;-81
2023/12/10 09:32:26;;;;;;;11.25;2.53;;;;;;;;;;4927513;29;20090;-82
2023/12/10 09:34:52;;;;;;;12.52;3.60;;;;;;;;;;4924163;29;20043;-82
2023/12/10 09:37:17;;;;;;;17.10;3.25;;;;;;;;;;4946493;28;20027;-82
2023/12/10 09:39:42;;;;;;;13.07;2.78;;;;;;;;;;4946285;28;20059;-82
2023/12/10 09:42:07;;;;;;;12.82;2.08;;;;;;;;;;4928342;29;20032;-82
2023/12/10 09:44:32;;;;;;;11.65;3.03;;;;;;;;;;4917776;28;20039;-82
2023/12/10 09:46:58;;;;;;;16.13;3.05;;;;;;;;;;4932850;28;20066;-82
2023/12/10 09:49:24;;;;;;;15.18;2.20;;;;;;;;;;4929427;29;20042;-82
2023/12/10 09:51:49;;;;;;;11.82;2.47;;;;;;;;;;4926552;28;20119;-81
2023/12/10 09:54:16;;;;;;;14.35;3.30;;;;;;;;;;4930238;29;20105;-82
2023/12/10 09:56:41;;;;;;;12.10;2.35;;;;;;;;;;4928792;28;20031;-83
2023/12/10 09:59:06;;;;;;;12.23;2.60;;;;;;;;;;4926173;29;20456;-82
2023/12/10 10:01:32;;;;;;;12.38;2.53;;;;;;;;;;4941789;28;20036;-82
2023/12/10 10:03:57;;;;;;;13.77;2.10;;;;;;;;;;4927106;29;20397;-82
2023/12/10 10:06:22;;;;;;;14.80;3.67;;;;;;;;;;4935264;29;20067;-82
2023/12/10 10:08:47;;;;;;;10.30;2.72;;;;;;;;;;4928259;29;20024;-82
2023/12/10 10:11:12;;;;;;;14.38;2.95;;;;;;;;;;4930916;28;20480;-83
2023/12/10 10:13:43;;;;;;;14.73;2.40;;;;;;;;;;4938643;29;20036;-83
2023/12/10 10:16:12;;;;;;;12.40;2.72;;;;;;;;;;4924760;29;20023;-82
2023/12/10 10:18:41;;;;;;;13.32;2.63;;;;;;;;;;4928174;29;20101;-82
2023/12/10 10:21:06;;;;;;;14.20;2.95;;;;;;;;;;4993571;28;20054;-83
2023/12/10 10:23:31;;;;;;;10.15;1.90;;;;;;;;;;4928840;29;20039;-83
2023/12/10 10:25:56;;;;;;;13.43;2.30;;;;;;;;;;4911626;28;20163;-83
2023/12/10 10:28:22;;;;;;;12.63;2.60;;;;;;;;;;4929960;28;20028;-83
2023/12/10 10:30:47;;;;;;;14.88;2.30;;;;;;;;;;4921873;29;20032;-83
2023/12/10 10:33:14;;;;;;;12.80;2.63;;;;;;;;;;4930459;29;20055;-83
2023/12/10 10:35:39;;;;;;;13.30;2.75;;;;;;;;;;4930341;28;20404;-82
2023/12/10 10:38:04;;;;;;;17.73;2.60;;;;;;;;;;4927441;29;20036;-82
2023/12/10 10:40:30;;;;;;;15.30;2.72;;;;;;;;;;4926266;28;20035;-83
2023/12/10 10:42:58;;;;;;;11.35;2.28;;;;;;;;;;4938767;28;20032;-83
2023/12/10 10:45:23;;;;;;;11.20;2.70;;;;;;;;;;4922272;28;20070;-86
2023/12/10 10:47:49;;;;;;;19.20;3.40;;;;;;;;;;4927153;28;20109;-86
2023/12/10 10:50:14;;;;;;;14.93;2.33;;;;;;;;;;4929299;28;20287;-86
2023/12/10 10:52:41;;;;;;;12.73;2.80;;;;;;;;;;4924466;29;20035;-86
2023/12/10 10:55:06;;;;;;;11.82;2.80;;;;;;;;;;4925827;29;20039;-86
2023/12/10 10:57:36;;;;;;;12.95;2.75;;;;;;;;;;4928742;28;20031;-86
2023/12/10 11:00:30;;;;;;;13.77;2.33;;;;;;;;;;4928384;28;20435;-83
2023/12/10 11:03:01;;;;;;;16.15;3.25;;;;;;;;;;4928131;29;20661;-83
2023/12/10 11:05:30;;;;;;;9.30;2.28;;;;;;;;;;4924668;28;20121;-84
2023/12/10 11:07:55;;;;;;;13.15;2.83;;;;;;;;;;4933951;28;20035;-83
2023/12/10 11:10:20;;;;;;;13.63;2.75;;;;;;;;;;4927482;28;20032;-84
2023/12/10 11:12:46;;;;;;;13.35;2.33;;;;;;;;;;4932406;29;20044;-84
2023/12/10 11:15:14;;;;;;;10.32;1.90;;;;;;;;;;4933005;29;20036;-84
2023/12/10 11:17:49;;;;;;;10.60;2.38;;;;;;;;;;4930795;29;20089;-84
2023/12/10 11:20:30;;;;;;;14.15;2.33;;;;;;;;;;4933185;29;20595;-84
2023/12/10 11:22:55;;;;;;;10.15;2.10;;;;;;;;;;4924870;28;20036;-83
2023/12/10 11:25:21;;;;;;;11.23;2.10;;;;;;;;;;4925528;29;20094;-84
2023/12/10 11:27:46;;;;;;;13.32;2.53;;;;;;;;;;4929835;29;20534;-84
2023/12/10 11:30:12;;;;;;;9.80;2.08;;;;;;;;;;4932141;29;20062;-83
2023/12/10 11:32:38;;;;;;;9.43;1.80;;;;;;;;;;4930071;29;20027;-83
2023/12/10 11:35:03;;;;;;;8.57;1.67;;;;;;;;;;4929779;29;20549;-86
2023/12/10 11:37:28;;;;;;;10.50;2.13;;;;;;;;;;4930446;29;20162;-86
2023/12/10 11:39:53;;;;;;;6.00;1.52;;;;;;;;;;4927947;29;20032;-85
2023/12/10 11:42:22;;;;;;;6.07;1.60;;;;;;;;;;4946527;29;20436;-86
2023/12/10 11:44:53;;;;;;;10.25;2.13;;;;;;;;;;4930273;29;20043;-86
2023/12/10 11:47:18;;;;;;;8.30;1.77;;;;;;;;;;4946126;28;20028;-87
2023/12/10 11:49:43;;;;;;;6.25;1.27;;;;;;;;;;4928333;29;20090;-87
2023/12/10 11:52:11;;;;;;;4.88;1.23;;;;;;;;;;4928031;29;20373;-87
2023/12/10 11:54:36;;;;;;;6.53;1.90;;;;;;;;;;4926482;29;20028;-84
2023/12/10 11:57:02;;;;;;;9.32;1.60;;;;;;;;;;4930747;29;20058;-88
2023/12/10 11:59:27;;;;;;;9.57;2.22;;;;;;;;;;4930799;29;20040;-88
2023/12/10 12:01:52;;;;;;;7.70;2.03;;;;;;;;;;4926412;29;20039;-87
2023/12/10 12:04:18;;;;;;;5.15;1.25;;;;;;;;;;4943527;28;20415;-88
2023/12/10 12:06:43;;;;;;;5.07;0.95;;;;;;;;;;4927185;29;20065;-89
2023/12/10 12:09:20;;;;;;;7.93;2.13;;;;;;;;;;4911989;28;20028;-88
2023/12/10 12:11:45;;;;;;;6.18;1.45;;;;;;;;;;4927145;28;20385;-88
2023/12/10 12:14:14;;;;;;;6.68;1.17;;;;;;;;;;4932769;29;20051;-88
2023/12/10 12:16:39;;;;;;;6.45;1.48;;;;;;;;;;4928919;29;20058;-87
2023/12/10 12:19:05;;;;;;;9.07;1.33;;;;;;;;;;4930185;28;20469;-88
2023/12/10 12:21:30;;;;;;;8.90;1.85;;;;;;;;;;4939152;28;20540;-87
2023/12/10 12:23:55;;;;;;;5.35;0.95;;;;;;;;;;4931916;29;20039;-87
2023/12/10 12:26:20;;;;;;;5.03;1.02;;;;;;;;;;4930223;29;20106;-87
2023/12/10 12:28:46;;;;;;;6.03;1.20;;;;;;;;;;4944536;28;20106;-87
2023/12/10 12:31:11;;;;;;;5.65;1.17;;;;;;;;;;4928537;29;20056;-87
2023/12/10 12:33:36;;;;;;;7.53;1.40;;;;;;;;;;4938882;28;20089;-88
2023/12/10 12:36:01;;;;;;;5.55;1.50;;;;;;;;;;4931675;29;20278;-84
2023/12/10 12:38:26;;;;;;;7.13;1.10;;;;;;;;;;4932239;29;20032;-87
2023/12/10 12:40:51;;;;;;;8.57;1.60;;;;;;;;;;4930308;29;20032;-86
2023/12/10 12:43:17;;;;;;;5.85;1.23;;;;;;;;;;4929522;29;20036;-88
2023/12/10 12:45:42;;;;;;;6.32;1.20;;;;;;;;;;4931696;29;20055;-87
2023/12/10 12:48:07;;;;;;;4.80;0.80;;;;;;;;;;4929796;29;20043;-86
2023/12/10 12:50:33;;;;;;;4.80;0.90;;;;;;;;;;4931165;29;20067;-86
2023/12/10 12:52:58;;;;;;;10.40;1.13;;;;;;;;;;4930638;28;20385;-85
2023/12/10 12:55:23;;;;;;;5.93;1.08;;;;;;;;;;4932163;29;20150;-86
2023/12/10 12:57:48;;;;;;;5.68;1.27;;;;;;;;;;4941781;28;20510;-85
2023/12/10 13:00:16;;;;;;;7.53;1.40;;;;;;;;;;4927982;29;20032;-85
2023/12/10 13:02:41;;;;;;;5.90;1.10;;;;;;;;;;4935197;29;20070;-86
2023/12/10 13:05:07;;;;;;;10.60;1.35;;;;;;;;;;4971620;28;20028;-86
2023/12/10 13:07:32;;;;;;;8.10;1.35;;;;;;;;;;4945898;28;20505;-86
2023/12/10 13:09:58;;;;;;;8.20;1.30;;;;;;;;;;4929104;29;20036;-85
2023/12/10 13:12:23;;;;;;;7.82;1.42;;;;;;;;;;4931512;29;20052;-84
2023/12/10 13:14:48;;;;;;;9.57;1.30;;;;;;;;;;4933015;29;20109;-86
2023/12/10 13:17:17;;;;;;;6.65;1.30;;;;;;;;;;4927004;29;20093;-86
2023/12/10 13:19:43;;;;;;;5.82;1.65;;;;;;;;;;4947215;29;20115;-85
2023/12/10 13:22:10;;;;;;;8.25;1.55;;;;;;;;;;4913173;28;20540;-86
2023/12/10 13:24:36;;;;;;;5.22;1.15;;;;;;;;;;4930375;29;20111;-86
2023/12/10 13:27:02;;;;;;;7.97;1.33;;;;;;;;;;4929777;29;20050;-86
2023/12/10 13:29:27;;;;;;;7.88;1.40;;;;;;;;;;4930172;28;20122;-86
2023/12/10 13:31:52;;;;;;;6.97;2.22;;;;;;;;;;4930872;29;20042;-85
2023/12/10 13:34:17;;;;;;;5.78;1.00;;;;;;;;;;4944423;28;20451;-85
2023/12/10 13:36:42;;;;;;;4.72;0.90;;;;;;;;;;4913420;28;20518;-85
2023/12/10 13:39:08;;;;;;;8.32;1.35;;;;;;;;;;4932158;28;20174;-85
2023/12/10 13:41:33;;;;;;;6.75;1.05;;;;;;;;;;4932935;29;20024;-85
2023/12/10 13:43:58;;;;;;;6.28;1.20;;;;;;;;;;4929686;28;20424;-85
2023/12/10 13:46:25;;;;;;;4.43;1.15;;;;;;;;;;4908336;28;20114;-85
2023/12/10 13:48:51;;;;;;;6.88;1.27;;;;;;;;;;4929382;29;20032;-85
2023/12/10 13:51:16;;;;;;;5.93;1.30;;;;;;;;;;4939493;29;20035;-86
2023/12/10 13:53:41;;;;;;;6.63;1.55;;;;;;;;;;4946820;29;20553;-84
2023/12/10 13:56:07;;;;;;;6.63;1.23;;;;;;;;;;4930617;29;20024;-85
2023/12/10 13:58:32;;;;;;;8.45;1.75;;;;;;;;;;4936703;28;20542;-85
2023/12/10 14:00:57;;;;;;;9.15;1.20;;;;;;;;;;4930000;29;20111;-85
2023/12/10 14:03:22;;;;;;;6.57;2.20;;;;;;;;;;4932083;29;20032;-84
2023/12/10 14:05:48;;;;;;;4.50;1.45;;;;;;;;;;4932229;29;20107;-85
2023/12/10 14:08:13;;;;;;;5.70;1.20;;;;;;;;;;4931048;29;20043;-85
2023/12/10 14:10:38;;;;;;;4.88;0.90;;;;;;;;;;4925713;28;20044;-85
2023/12/10 14:13:03;;;;;;;10.07;1.60;;;;;;;;;;4923892;29;20123;-85
2023/12/10 14:15:28;;;;;;;10.05;1.08;;;;;;;;;;4931011;29;20031;-86
2023/12/10 14:17:54;;;;;;;6.97;1.40;;;;;;;;;;4928991;29;20407;-87
2023/12/10 14:20:19;;;;;;;7.85;1.45;;;;;;;;;;4928024;29;20023;-86
2023/12/10 14:22:44;;;;;;;6.18;1.23;;;;;;;;;;4924321;29;20028;-86
2023/12/10 14:25:10;;;;;;;6.13;1.20;;;;;;;;;;4939943;28;20046;-86
2023/12/10 14:27:35;;;;;;;8.40;1.58;;;;;;;;;;4927303;29;20040;-85
2023/12/10 14:30:00;;;;;;;8.80;2.72;;;;;;;;;;4930909;29;20039;-86